Terminal Aerodrome Forecast
Issued by NWS Pittsburgh, PA

Current Version | Previous Version | Text Only | Print | Product List | Glossary Off
Versions: 1 2 3 4 5 6 7 8 9 10 11 12 13 14 15 16 17 18 19 20 21 22 23 24 25

000
FTUS41 KPBZ 260520
TAFPIT
TAF
KPIT 260520Z 2606/2712 00000KT P6SM SCT250
     FM261000 29003KT 5SM BR SCT250
     FM261300 33004KT P6SM SCT250=

USA.gov is the U.S. government's official web portal to all federal, state and local government web resources and services.